Time;durP1;ratioP1;P1;durP2;ratioP2;P2;SDS_P1;SDS_P2;PMS_P1;PMS_P2;Temp;Humidity;BMP_temperature;BMP_pressure;BME280_temperature;BME280_humidity;BME280_pressure;Samples;Min_cycle;Max_cycle;Signal;HPM_P1;HPM_P2
2023/06/21 00:01:01;;;;;;;11.07;4.97;;;;;;;22.46;100.00;96106.22;5011464;28;101836;-60
2023/06/21 00:03:29;;;;;;;8.87;4.93;;;;;;;22.39;100.00;96108.66;4995800;28;104442;-60
2023/06/21 00:05:56;;;;;;;12.67;5.17;;;;;;;22.47;100.00;96116.75;4993114;28;101871;-60
2023/06/21 00:08:23;;;;;;;9.57;4.37;;;;;;;22.51;100.00;96117.66;5010848;28;102635;-60
2023/06/21 00:10:50;;;;;;;6.67;4.50;;;;;;;22.55;100.00;96125.94;4992978;28;102750;-60
2023/06/21 00:13:17;;;;;;;6.27;4.20;;;;;;;22.49;100.00;96124.50;5011256;28;102004;-60
2023/06/21 00:15:44;;;;;;;11.00;4.60;;;;;;;22.48;100.00;96121.03;5010955;28;102473;-60
2023/06/21 00:18:11;;;;;;;9.57;4.60;;;;;;;22.44;100.00;96130.94;5010315;28;102239;-60
2023/06/21 00:20:40;;;;;;;10.37;4.60;;;;;;;22.48;100.00;96125.66;5011042;28;101970;-60
2023/06/21 00:23:08;;;;;;;11.13;5.07;;;;;;;22.59;100.00;96126.81;5010818;28;102740;-60
2023/06/21 00:25:35;;;;;;;7.03;3.93;;;;;;;22.58;100.00;96130.66;5013717;28;102704;-60
2023/06/21 00:28:02;;;;;;;9.87;4.30;;;;;;;22.63;100.00;96133.19;5010934;28;102512;-60
2023/06/21 00:30:28;;;;;;;10.43;4.93;;;;;;;22.65;100.00;96139.03;4992152;28;105357;-60
2023/06/21 00:32:56;;;;;;;9.40;5.07;;;;;;;22.61;100.00;96146.28;4992625;28;102272;-60
2023/06/21 00:35:23;;;;;;;8.80;4.43;;;;;;;22.47;100.00;96143.03;4992603;28;105284;-60
2023/06/21 00:37:54;;;;;;;7.47;4.53;;;;;;;22.52;100.00;96140.13;4992112;28;105971;-60
2023/06/21 00:40:22;;;;;;;8.70;4.47;;;;;;;22.46;100.00;96138.75;5011000;28;101798;-60
2023/06/21 00:42:49;;;;;;;6.73;4.40;;;;;;;22.39;100.00;96135.75;4992549;28;105265;-60
2023/06/21 00:45:17;;;;;;;6.43;4.23;;;;;;;22.40;100.00;96142.75;5010051;28;102951;-60
2023/06/21 00:47:45;;;;;;;8.23;4.60;;;;;;;22.40;100.00;96137.34;4995753;28;101915;-60
2023/06/21 00:50:12;;;;;;;9.07;4.40;;;;;;;22.05;100.00;96139.50;4991858;28;105568;-60
2023/06/21 00:52:42;;;;;;;10.53;5.00;;;;;;;22.06;100.00;96151.13;4992362;28;102026;-60
2023/06/21 00:55:12;;;;;;;10.93;5.13;;;;;;;22.03;100.00;96154.47;4992388;28;105616;-60
2023/06/21 00:57:39;;;;;;;6.57;5.03;;;;;;;22.00;100.00;96152.41;4991763;28;105397;-60
2023/06/21 01:00:12;;;;;;;9.97;5.57;;;;;;;22.03;100.00;96160.69;4992208;28;101992;-60
2023/06/21 01:02:39;;;;;;;11.97;5.00;;;;;;;21.87;100.00;96159.69;4992344;28;103766;-60
2023/06/21 01:05:07;;;;;;;12.10;5.33;;;;;;;21.86;100.00;96165.41;5009837;28;101817;-60
2023/06/21 01:07:45;;;;;;;8.67;5.27;;;;;;;21.92;100.00;96166.81;4991738;28;102160;-60
2023/06/21 01:10:38;;;;;;;7.13;5.27;;;;;;;21.96;100.00;96167.75;4995019;28;105298;-60
2023/06/21 01:13:14;;;;;;;9.23;5.50;;;;;;;21.99;100.00;96173.31;5010380;28;101719;-60
2023/06/21 01:15:47;;;;;;;10.37;6.00;;;;;;;22.03;100.00;96179.66;4991772;28;105232;-60
2023/06/21 01:18:15;;;;;;;9.80;5.83;;;;;;;22.05;100.00;96179.31;4991389;28;105767;-60
2023/06/21 01:20:48;;;;;;;11.47;5.70;;;;;;;22.05;100.00;96182.00;4992027;28;101878;-60
2023/06/21 01:23:31;;;;;;;11.07;5.90;;;;;;;22.06;100.00;96175.50;4991975;28;105313;-60
2023/06/21 01:26:12;;;;;;;8.93;5.67;;;;;;;22.02;100.00;96179.97;4991494;28;105913;-60
2023/06/21 01:28:55;;;;;;;5.97;5.20;;;;;;;22.06;100.00;96175.50;4991839;28;101870;-60
2023/06/21 01:31:23;;;;;;;11.57;6.00;;;;;;;22.02;100.00;96178.06;4994849;28;104388;-60
2023/06/21 01:33:51;;;;;;;9.77;5.80;;;;;;;22.04;100.00;96181.25;4991780;28;101902;-60
2023/06/21 01:36:19;;;;;;;9.77;6.17;;;;;;;21.98;100.00;96181.75;4991793;28;105473;-60
2023/06/21 01:38:46;;;;;;;10.43;5.67;;;;;;;21.91;100.00;96192.31;4990980;28;105925;-60
2023/06/21 01:41:13;;;;;;;11.60;5.80;;;;;;;21.88;100.00;96190.25;4991737;28;101925;-60
2023/06/21 01:43:41;;;;;;;8.50;5.37;;;;;;;21.86;100.00;96187.84;4991610;28;105730;-60
2023/06/21 01:46:11;;;;;;;9.57;5.80;;;;;;;21.83;100.00;96190.41;4991180;28;105239;-60
2023/06/21 01:48:39;;;;;;;11.37;5.60;;;;;;;21.82;100.00;96191.53;4991616;28;101869;-60
2023/06/21 01:51:07;;;;;;;7.47;6.03;;;;;;;21.78;100.00;96194.13;5009758;28;102942;-60
2023/06/21 01:53:35;;;;;;;13.20;7.23;;;;;;;21.71;100.00;96187.63;4994470;28;105750;-60
2023/06/21 01:56:05;;;;;;;8.53;5.77;;;;;;;21.75;100.00;96188.56;4991595;28;105843;-60
2023/06/21 01:58:33;;;;;;;10.73;6.10;;;;;;;21.76;100.00;96200.97;4990799;28;105728;-60
2023/06/21 02:01:03;;;;;;;9.73;6.20;;;;;;;21.76;100.00;96195.56;4991344;28;102039;-60
2023/06/21 02:03:33;;;;;;;12.50;6.60;;;;;;;21.81;100.00;96201.59;4991475;28;105254;-60
2023/06/21 02:06:04;;;;;;;9.77;5.87;;;;;;;21.72;100.00;96200.84;5008873;28;102600;-60
2023/06/21 02:08:32;;;;;;;11.13;6.17;;;;;;;21.72;100.00;96203.53;4991605;28;102001;-60
2023/06/21 02:11:01;;;;;;;12.03;5.87;;;;;;;21.73;100.00;96209.72;5016045;28;102455;-60
2023/06/21 02:13:27;;;;;;;9.27;5.90;;;;;;;21.69;100.00;96211.53;4997277;28;103837;-60
2023/06/21 02:15:54;;;;;;;10.27;5.70;;;;;;;21.75;100.00;96204.81;5001343;28;102050;-60
2023/06/21 02:18:22;;;;;;;10.83;6.00;;;;;;;21.79;100.00;96211.16;4997204;28;105946;-60
2023/06/21 02:20:51;;;;;;;10.60;5.83;;;;;;;21.76;100.00;96211.78;4997727;28;101893;-60
2023/06/21 02:23:19;;;;;;;12.27;5.80;;;;;;;21.74;100.00;96217.53;4997842;28;105580;-60
2023/06/21 02:25:46;;;;;;;10.13;5.67;;;;;;;21.73;100.00;96218.66;5015459;28;102681;-60
2023/06/21 02:28:13;;;;;;;10.33;5.97;;;;;;;21.67;100.00;96225.34;4997604;28;102125;-60
2023/06/21 02:30:40;;;;;;;9.07;5.57;;;;;;;21.44;100.00;96232.09;4997723;28;105611;-60
2023/06/21 02:33:07;;;;;;;11.63;5.97;;;;;;;21.26;100.00;96229.75;4997028;28;106111;-60
2023/06/21 02:35:35;;;;;;;10.93;5.50;;;;;;;21.18;100.00;96235.97;5015784;28;101863;-60
2023/06/21 02:38:07;;;;;;;13.37;5.37;;;;;;;21.04;100.00;96246.19;5018620;28;104073;-60
2023/06/21 02:40:33;;;;;;;10.87;6.10;;;;;;;20.80;100.00;96238.50;4997652;28;101959;-60
2023/06/21 02:43:01;;;;;;;9.07;5.73;;;;;;;20.75;100.00;96245.97;4997454;28;104904;-60
2023/06/21 02:45:28;;;;;;;12.27;6.07;;;;;;;20.69;100.00;96253.47;5015098;28;102462;-60
2023/06/21 02:47:56;;;;;;;10.77;5.20;;;;;;;20.58;100.00;96256.78;4997317;28;101947;-60
2023/06/21 02:50:23;;;;;;;11.10;5.77;;;;;;;20.55;100.00;96260.13;5015723;28;102345;-60
2023/06/21 02:52:50;;;;;;;12.60;5.60;;;;;;;20.52;100.00;96258.84;5014997;28;103545;-60
2023/06/21 02:55:18;;;;;;;11.97;6.17;;;;;;;20.55;100.00;96260.91;4997448;28;102026;-60
2023/06/21 02:57:47;;;;;;;11.47;5.67;;;;;;;20.59;100.00;96267.28;4998184;28;101780;-60
2023/06/21 03:00:22;;;;;;;11.40;6.30;;;;;;;20.61;100.00;96270.44;5000148;28;105411;-60
2023/06/21 03:02:49;;;;;;;15.30;5.70;;;;;;;20.66;100.00;96277.63;5015718;28;102385;-60
2023/06/21 03:05:16;;;;;;;11.37;5.40;;;;;;;20.66;100.00;96275.69;5014870;28;102637;-60
2023/06/21 03:07:44;;;;;;;12.47;5.80;;;;;;;20.60;100.00;96281.59;4996956;28;102030;-60
2023/06/21 03:10:13;;;;;;;8.80;5.60;;;;;;;20.41;100.00;96283.75;5015371;28;102980;-60
2023/06/21 03:12:43;;;;;;;9.47;5.87;;;;;;;20.27;100.00;96288.50;4996588;28;105544;-60
2023/06/21 03:15:12;;;;;;;7.40;5.37;;;;;;;20.21;100.00;96295.16;4996909;28;102068;-60
2023/06/21 03:17:40;;;;;;;10.97;5.80;;;;;;;20.19;100.00;96300.06;4997294;28;104518;-60
2023/06/21 03:20:12;;;;;;;11.50;6.40;;;;;;;20.14;100.00;96300.22;4995113;28;105665;-60
2023/06/21 03:22:41;;;;;;;15.00;6.90;;;;;;;20.16;100.00;96309.59;4997103;28;101796;-60
2023/06/21 03:25:10;;;;;;;13.53;6.60;;;;;;;20.25;100.00;96310.41;4993109;28;105799;-60
2023/06/21 03:27:37;;;;;;;13.47;6.53;;;;;;;20.27;100.00;96310.13;4993810;28;101873;-60
2023/06/21 03:30:11;;;;;;;9.63;6.13;;;;;;;20.26;100.00;96305.81;4993592;28;103677;-60
2023/06/21 03:32:40;;;;;;;9.27;6.10;;;;;;;20.31;100.00;96305.66;4993349;28;105539;-60
2023/06/21 03:35:07;;;;;;;13.90;6.57;;;;;;;20.21;100.00;96316.78;5011751;28;101845;-60
2023/06/21 03:37:34;;;;;;;10.27;5.70;;;;;;;20.28;100.00;96319.81;4993657;28;105222;-60
2023/06/21 03:40:03;;;;;;;8.03;5.77;;;;;;;20.30;100.00;96331.09;4992964;28;106106;-60
2023/06/21 03:42:30;;;;;;;8.90;6.10;;;;;;;20.29;100.00;96334.91;4997044;28;101956;-60
2023/06/21 03:44:59;;;;;;;10.97;6.03;;;;;;;20.31;100.00;96335.38;4992851;28;105500;-60
2023/06/21 03:47:28;;;;;;;8.10;5.83;;;;;;;20.29;100.00;96337.59;4993539;28;101920;-60
2023/06/21 03:49:57;;;;;;;9.97;5.80;;;;;;;20.31;100.00;96338.88;4993476;28;105434;-60
2023/06/21 03:52:25;;;;;;;11.23;6.40;;;;;;;20.21;100.00;96343.78;4992879;28;105220;-60
2023/06/21 03:54:53;;;;;;;11.33;6.53;;;;;;;20.09;100.00;96338.16;4993360;28;101993;-60
2023/06/21 03:57:20;;;;;;;10.47;5.70;;;;;;;20.19;100.00;96335.97;4993290;28;105921;-60
2023/06/21 03:59:47;;;;;;;10.17;5.67;;;;;;;20.21;100.00;96343.78;4992702;28;105354;-60
2023/06/21 04:02:15;;;;;;;8.83;5.73;;;;;;;20.21;100.00;96333.75;5011502;28;101914;-60
2023/06/21 04:04:44;;;;;;;13.03;5.73;;;;;;;20.24;100.00;96326.94;5014294;28;102911;-60
2023/06/21 04:07:10;;;;;;;9.50;6.27;;;;;;;20.30;100.00;96323.78;4984909;28;101905;-60
2023/06/21 04:09:37;;;;;;;11.20;6.73;;;;;;;20.32;100.00;96329.66;4969673;28;105367;-59
2023/06/21 04:12:05;;;;;;;10.63;6.30;;;;;;;20.31;100.00;96327.25;4969390;28;105133;-60
2023/06/21 04:14:32;;;;;;;11.83;6.63;;;;;;;20.26;100.00;96335.50;4969939;28;101883;-60
2023/06/21 04:17:00;;;;;;;10.93;5.87;;;;;;;20.35;100.00;96330.94;4969777;28;105585;-60
2023/06/21 04:19:27;;;;;;;13.23;6.70;;;;;;;20.31;100.00;96329.97;4969181;28;105221;-60
2023/06/21 04:21:55;;;;;;;9.70;6.27;;;;;;;20.33;100.00;96335.88;4969812;28;101991;-60
2023/06/21 04:24:22;;;;;;;10.30;6.23;;;;;;;20.29;100.00;96338.41;4969776;28;105345;-60
2023/06/21 04:26:49;;;;;;;11.03;6.20;;;;;;;20.31;100.00;96335.38;4972564;28;103986;-60
2023/06/21 04:29:18;;;;;;;11.00;6.67;;;;;;;20.34;100.00;96332.88;4964184;28;105553;-60
2023/06/21 04:31:45;;;;;;;9.30;6.30;;;;;;;20.18;100.00;96338.97;4968555;28;105530;-60
2023/06/21 04:34:12;;;;;;;9.50;6.37;;;;;;;20.26;100.00;96336.31;4970952;28;101858;-60
2023/06/21 04:36:39;;;;;;;9.10;6.23;;;;;;;20.31;100.00;96341.56;4971006;28;102864;-60
2023/06/21 04:39:07;;;;;;;10.93;7.17;;;;;;;20.34;100.00;96338.28;4970292;28;102590;-60
2023/06/21 04:41:36;;;;;;;8.03;6.33;;;;;;;20.47;100.00;96342.75;4970769;28;102150;-60
2023/06/21 04:44:03;;;;;;;11.50;6.30;;;;;;;20.51;100.00;96345.59;4970853;28;102917;-60
2023/06/21 04:46:30;;;;;;;9.93;6.53;;;;;;;20.65;100.00;96349.00;4970388;28;103272;-60
2023/06/21 04:48:57;;;;;;;8.37;6.53;;;;;;;20.61;100.00;96348.03;4972719;28;101987;-60
2023/06/21 04:51:23;;;;;;;11.93;6.90;;;;;;;20.49;100.00;96345.13;4970102;28;102614;-60
2023/06/21 04:53:50;;;;;;;7.27;6.50;;;;;;;20.56;100.00;96340.06;4970567;28;102150;-60
2023/06/21 04:56:19;;;;;;;12.00;7.23;;;;;;;20.67;100.00;96331.34;4969280;28;105789;-60
2023/06/21 04:58:47;;;;;;;7.60;6.13;;;;;;;20.78;100.00;96339.94;4970232;28;102740;-60
2023/06/21 05:01:14;;;;;;;8.67;6.07;;;;;;;20.91;100.00;96333.63;4969308;28;102301;-60
2023/06/21 05:03:41;;;;;;;7.60;5.90;;;;;;;21.03;100.00;96339.22;4970501;28;102794;-60
2023/06/21 05:06:08;;;;;;;9.13;6.97;;;;;;;21.04;100.00;96332.69;4969855;28;102925;-60
2023/06/21 05:08:35;;;;;;;10.37;6.53;;;;;;;21.10;100.00;96334.13;5002406;28;101861;-60
2023/06/21 05:11:02;;;;;;;9.90;6.97;;;;;;;21.16;100.00;96328.25;5013173;28;102693;-60
2023/06/21 05:13:31;;;;;;;8.17;6.47;;;;;;;21.22;100.00;96337.00;5010455;28;101982;-60
2023/06/21 05:15:58;;;;;;;8.43;6.50;;;;;;;21.22;100.00;96339.69;5010062;28;102612;-61
2023/06/21 05:18:25;;;;;;;11.80;7.30;;;;;;;21.21;100.00;96340.81;4991704;28;105568;-60
2023/06/21 05:20:52;;;;;;;8.97;6.83;;;;;;;21.31;100.00;96335.88;4992110;28;101863;-60
2023/06/21 05:23:20;;;;;;;10.00;6.97;;;;;;;21.21;100.00;96333.47;5010128;28;102962;-60
2023/06/21 05:25:46;;;;;;;8.63;6.80;;;;;;;21.38;100.00;96328.09;4991288;28;105363;-61
2023/06/21 05:28:13;;;;;;;10.57;6.93;;;;;;;21.49;100.00;96334.75;5010161;28;101888;-61
2023/06/21 05:30:42;;;;;;;9.97;7.23;;;;;;;21.31;100.00;96333.16;4991827;28;105357;-61
2023/06/21 05:33:09;;;;;;;11.20;6.53;;;;;;;21.40;100.00;96333.16;5012469;28;101902;-60
2023/06/21 05:35:36;;;;;;;9.93;6.37;;;;;;;21.57;100.00;96343.97;5009877;28;102415;-61
2023/06/21 05:38:03;;;;;;;9.93;6.60;;;;;;;21.67;100.00;96347.13;5009612;28;102597;-61
2023/06/21 05:40:30;;;;;;;9.33;6.57;;;;;;;21.60;100.00;96351.44;5010014;28;101903;-61
2023/06/21 05:43:00;;;;;;;11.90;7.20;;;;;;;21.57;100.00;96352.88;5009640;28;101982;-61
2023/06/21 05:45:28;;;;;;;10.60;6.83;;;;;;;21.82;100.00;96356.69;5008866;28;102726;-61
2023/06/21 05:47:58;;;;;;;11.33;6.30;;;;;;;21.96;100.00;96366.22;4991718;28;102102;-61
2023/06/21 05:50:25;;;;;;;11.70;6.90;;;;;;;22.15;100.00;96363.13;4991635;28;105566;-60
2023/06/21 05:52:51;;;;;;;10.73;7.37;;;;;;;22.16;100.00;96367.41;5012569;28;102584;-61
2023/06/21 05:55:18;;;;;;;12.43;7.43;;;;;;;22.29;100.00;96366.44;4991540;28;103622;-61
2023/06/21 05:57:45;;;;;;;11.13;7.33;;;;;;;22.31;100.00;96381.25;5008931;28;102804;-60
2023/06/21 06:00:13;;;;;;;11.97;7.23;;;;;;;22.43;100.00;96388.69;5009644;28;101909;-61
2023/06/21 06:02:44;;;;;;;13.87;7.23;;;;;;;22.74;100.00;96391.91;4991414;28;105403;-60
2023/06/21 06:05:12;;;;;;;14.63;7.70;;;;;;;22.80;100.00;96396.03;4990696;28;105653;-61
2023/06/21 06:07:39;;;;;;;15.07;7.83;;;;;;;22.77;100.00;96400.19;4979282;28;101906;-60
2023/06/21 06:10:07;;;;;;;13.53;6.87;;;;;;;23.25;100.00;96395.13;4968187;28;104097;-60
2023/06/21 06:12:34;;;;;;;11.80;6.97;;;;;;;23.44;100.00;96395.47;4969093;28;102778;-61
2023/06/21 06:15:01;;;;;;;12.37;6.63;;;;;;;23.33;100.00;96409.78;4973145;28;101968;-60
2023/06/21 06:17:28;;;;;;;15.10;7.07;;;;;;;23.38;100.00;96409.59;4969157;28;102723;-60
2023/06/21 06:19:55;;;;;;;11.27;7.03;;;;;;;23.55;100.00;96414.88;4969518;28;102303;-61
2023/06/21 06:22:24;;;;;;;10.80;6.57;;;;;;;23.66;100.00;96416.06;4969695;28;102616;-61
2023/06/21 06:24:50;;;;;;;16.13;6.83;;;;;;;23.94;100.00;96417.09;4967580;28;103801;-60
2023/06/21 06:27:17;;;;;;;14.50;6.47;;;;;;;23.94;100.00;96412.47;4967441;28;101949;-60
2023/06/21 06:29:44;;;;;;;15.57;6.53;;;;;;;24.25;100.00;96417.44;4969533;28;102624;-61
2023/06/21 06:32:11;;;;;;;13.37;6.10;;;;;;;24.31;100.00;96414.16;4967354;28;104001;-61
2023/06/21 06:34:38;;;;;;;10.37;6.03;;;;;;;24.32;100.00;96432.06;4967906;28;101913;-61
2023/06/21 06:37:05;;;;;;;7.90;5.70;;;;;;;24.40;100.00;96439.31;4970909;28;105129;-61
2023/06/21 06:39:33;;;;;;;12.53;6.53;;;;;;;24.59;100.00;96446.97;4968002;28;102065;-61
2023/06/21 06:42:00;;;;;;;9.00;5.43;;;;;;;24.75;100.00;96447.91;4967988;28;105212;-61
2023/06/21 06:44:27;;;;;;;9.80;6.07;;;;;;;24.51;100.00;96451.34;4968889;28;101900;-61
2023/06/21 06:46:54;;;;;;;10.70;6.37;;;;;;;24.72;100.00;96448.56;4968032;28;102248;-60
2023/06/21 06:49:21;;;;;;;9.10;6.13;;;;;;;24.63;100.00;96456.06;4967680;28;105155;-61
2023/06/21 06:51:47;;;;;;;9.07;5.90;;;;;;;24.95;100.00;96457.91;4967322;28;105131;-61
2023/06/21 06:54:15;;;;;;;9.23;5.80;;;;;;;24.73;100.00;96456.41;4968028;28;102167;-61
2023/06/21 06:56:43;;;;;;;8.90;6.00;;;;;;;24.74;100.00;96459.94;4972572;28;102622;-61
2023/06/21 06:59:10;;;;;;;11.87;6.53;;;;;;;25.12;100.00;96455.72;4974018;28;105066;-60
2023/06/21 07:01:37;;;;;;;10.60;5.90;;;;;;;25.04;100.00;96464.03;4971092;28;105242;-61
2023/06/21 07:04:04;;;;;;;10.10;6.33;;;;;;;24.99;100.00;96465.03;4971733;28;103123;-61
2023/06/21 07:06:31;;;;;;;11.50;6.23;;;;;;;25.21;100.00;96469.22;4972487;28;101852;-61
2023/06/21 07:08:58;;;;;;;8.07;6.77;;;;;;;25.05;100.00;96471.84;5010561;28;102979;-61
2023/06/21 07:11:24;;;;;;;8.60;6.20;;;;;;;25.33;100.00;96470.03;5011674;28;102558;-61
2023/06/21 07:13:53;;;;;;;10.93;5.97;;;;;;;25.49;100.00;96465.50;5011896;28;101905;-61
2023/06/21 07:16:20;;;;;;;10.03;5.90;;;;;;;25.78;100.00;96464.41;4994080;28;105621;-61
2023/06/21 07:18:47;;;;;;;11.40;5.80;;;;;;;25.95;100.00;96469.59;4993100;28;105472;-60
2023/06/21 07:21:17;;;;;;;7.63;5.80;;;;;;;26.04;100.00;96462.84;5015743;28;102041;-60
2023/06/21 07:23:44;;;;;;;8.93;5.63;;;;;;;25.92;100.00;96465.63;5011351;28;102700;-60
2023/06/21 07:26:10;;;;;;;13.50;6.37;;;;;;;25.57;100.00;96464.59;5011976;28;101863;-60
2023/06/21 07:28:37;;;;;;;11.97;5.50;;;;;;;25.90;100.00;96461.63;4993695;28;105320;-59
2023/06/21 07:31:05;;;;;;;8.27;5.63;;;;;;;26.24;100.00;96464.59;5011308;28;102569;-60
2023/06/21 07:33:32;;;;;;;10.27;5.70;;;;;;;26.34;100.00;96468.75;5011778;28;102021;-60
2023/06/21 07:35:59;;;;;;;12.43;5.87;;;;;;;26.26;100.00;96454.13;4993728;28;104129;-60
2023/06/21 07:38:27;;;;;;;9.67;6.17;;;;;;;26.77;100.00;96458.66;5011069;28;103020;-60
2023/06/21 07:40:54;;;;;;;8.37;4.93;;;;;;;26.97;100.00;96451.34;4997083;28;102060;-60
2023/06/21 07:43:21;;;;;;;6.13;5.40;;;;;;;27.06;100.00;96449.19;5011193;28;102921;-60
2023/06/21 07:45:48;;;;;;;8.17;5.20;;;;;;;27.12;100.00;96453.25;5011877;28;102058;-60
2023/06/21 07:48:17;;;;;;;9.23;6.00;;;;;;;26.80;100.00;96440.78;5011497;28;102356;-60
2023/06/21 07:50:44;;;;;;;10.23;6.03;;;;;;;26.78;100.00;96443.06;4992675;28;104945;-60
2023/06/21 07:53:10;;;;;;;12.37;5.90;;;;;;;26.84;100.00;96442.44;4993356;28;102244;-60
2023/06/21 07:55:37;;;;;;;8.97;6.17;;;;;;;27.12;100.00;96447.78;4993237;28;105311;-60
2023/06/21 07:58:04;;;;;;;8.77;6.50;;;;;;;27.23;100.00;96443.38;4992588;28;105440;-60
2023/06/21 08:00:31;;;;;;;11.87;5.30;;;;;;;27.61;100.00;96446.22;4993160;28;102311;-60
2023/06/21 08:02:58;;;;;;;9.20;6.13;;;;;;;27.98;100.00;96441.94;4996155;28;105441;-60
2023/06/21 08:05:26;;;;;;;11.63;6.03;;;;;;;27.89;100.00;96441.41;4993163;28;101978;-60
2023/06/21 08:07:53;;;;;;;9.90;5.67;;;;;;;27.52;100.00;96440.16;4991620;28;103564;-60
2023/06/21 08:10:20;;;;;;;8.47;5.70;;;;;;;28.15;100.00;96441.50;4992482;28;105789;-60
2023/06/21 08:12:47;;;;;;;8.27;5.43;;;;;;;27.58;100.00;96442.25;4993218;28;101971;-60
2023/06/21 08:15:14;;;;;;;8.73;5.00;;;;;;;27.76;100.00;96439.91;4992878;28;105383;-60
2023/06/21 08:17:41;;;;;;;10.33;5.63;;;;;;;28.21;100.00;96445.53;4992468;28;105073;-60
2023/06/21 08:20:09;;;;;;;7.85;5.65;;;;;;;27.82;100.00;96443.97;4992889;28;102219;-60
2023/06/21 08:22:37;;;;;;;7.95;5.05;;;;;;;27.93;94.21;96439.50;5011186;28;102713;-60
2023/06/21 08:25:04;;;;;;;7.97;5.40;;;;;;;28.37;100.00;96438.03;4995700;28;105539;-60
2023/06/21 08:27:31;;;;;;;12.50;5.30;;;;;;;28.79;100.00;96422.41;4993103;28;103722;-60
2023/06/21 08:29:58;;;;;;;7.90;5.00;;;;;;;28.46;94.10;96438.63;4992323;28;104472;-60
2023/06/21 08:32:25;;;;;;;7.97;4.90;;;;;;;27.94;100.00;96433.69;4992804;28;101993;-60
2023/06/21 08:34:52;;;;;;;9.48;5.15;;;;;;;27.79;92.51;96433.75;4992773;28;104948;-60
2023/06/21 08:37:22;;;;;;;8.90;5.40;;;;;;;27.90;100.00;96430.06;4992316;28;105434;-60
2023/06/21 08:39:52;;;;;;;7.75;5.10;;;;;;;28.32;100.00;96436.38;4992720;28;101895;-60
2023/06/21 08:42:19;;;;;;;8.40;5.10;;;;;;;28.42;100.00;96437.75;5010540;28;102378;-60
2023/06/21 08:44:49;;;;;;;7.28;5.22;;;;;;;28.62;96.53;96433.84;4991817;28;104259;-60
2023/06/21 08:47:16;;;;;;;10.98;5.43;;;;;;;28.74;100.00;96425.44;5014091;28;101918;-60
2023/06/21 08:49:49;;;;;;;10.98;5.85;;;;;;;28.58;100.00;96438.44;4992047;28;104234;-60
2023/06/21 08:52:20;;;;;;;8.63;5.68;;;;;;;28.63;100.00;96430.75;5010889;28;101733;-60
2023/06/21 08:54:50;;;;;;;9.20;5.72;;;;;;;28.27;100.00;96444.88;4992580;28;105667;-60
2023/06/21 08:57:23;;;;;;;8.15;5.97;;;;;;;28.51;100.00;96441.06;5010168;28;102869;-60
2023/06/21 08:59:54;;;;;;;10.35;5.70;;;;;;;27.96;100.00;96449.72;4992383;28;102039;-60
2023/06/21 09:02:31;;;;;;;6.53;5.38;;;;;;;28.43;100.00;96447.53;4992272;28;104061;-60
2023/06/21 09:05:00;;;;;;;7.57;5.40;;;;;;;28.41;100.00;96444.41;4991776;28;103824;-60
2023/06/21 09:07:28;;;;;;;10.73;5.82;;;;;;;28.53;100.00;96445.03;4991608;28;101947;-60
2023/06/21 09:09:57;;;;;;;10.18;5.63;;;;;;;29.28;100.00;96450.63;4994987;28;104930;-60
2023/06/21 09:12:27;;;;;;;8.10;5.10;;;;;;;29.20;95.64;96441.50;4992320;28;102165;-60
2023/06/21 09:14:55;;;;;;;7.55;4.60;;;;;;;29.25;77.32;96448.63;4992036;28;104853;-60
2023/06/21 09:17:23;;;;;;;7.75;5.03;;;;;;;28.81;89.33;96441.97;4991601;28;104696;-60
2023/06/21 09:19:50;;;;;;;6.15;4.75;;;;;;;28.70;87.07;96451.97;5009065;28;102190;-60
2023/06/21 09:22:18;;;;;;;7.63;4.88;;;;;;;28.94;86.91;96452.38;4992075;28;105184;-60
2023/06/21 09:24:45;;;;;;;9.32;5.03;;;;;;;29.81;88.34;96458.47;4991450;28;103785;-60
2023/06/21 09:27:12;;;;;;;8.95;4.72;;;;;;;30.54;87.57;96452.31;4991971;28;101948;-60
2023/06/21 09:29:40;;;;;;;6.15;5.13;;;;;;;30.00;75.81;96455.59;4991769;28;104995;-60
2023/06/21 09:32:07;;;;;;;7.35;5.00;;;;;;;29.63;79.32;96449.22;4994728;28;105390;-60
2023/06/21 09:34:34;;;;;;;6.65;5.00;;;;;;;29.94;79.52;96448.03;4992064;28;104908;-60
2023/06/21 09:37:01;;;;;;;11.88;5.60;;;;;;;28.93;79.50;96455.50;4991180;28;105345;-60
2023/06/21 09:39:28;;;;;;;9.80;5.15;;;;;;;29.70;79.31;96454.00;4991777;28;102299;-60
2023/06/21 09:41:55;;;;;;;12.15;5.20;;;;;;;28.96;85.82;96457.50;4991853;28;105241;-60
2023/06/21 09:44:22;;;;;;;7.88;5.47;;;;;;;28.78;85.46;96461.88;4991126;28;105626;-60
2023/06/21 09:46:58;;;;;;;9.57;5.55;;;;;;;28.63;81.87;96460.84;4991832;28;102112;-60
2023/06/21 09:49:27;;;;;;;6.78;4.75;;;;;;;29.54;86.66;96450.66;4991700;28;104989;-60
2023/06/21 09:51:54;;;;;;;7.80;5.07;;;;;;;29.40;75.32;96451.19;5012454;28;102858;-60
2023/06/21 09:54:21;;;;;;;5.90;4.45;;;;;;;30.27;81.18;96453.56;4991536;28;104822;-60
2023/06/21 09:56:48;;;;;;;7.38;4.57;;;;;;;30.69;75.34;96454.06;4990803;28;105488;-60
2023/06/21 09:59:16;;;;;;;6.57;4.60;;;;;;;30.82;64.82;96442.44;4991562;28;101831;-60
2023/06/21 10:01:49;;;;;;;6.22;4.40;;;;;;;30.98;73.00;96447.66;4991414;28;104820;-60
2023/06/21 10:04:18;;;;;;;8.00;5.03;;;;;;;31.26;70.85;96448.72;5009240;28;103089;-60
2023/06/21 10:06:50;;;;;;;8.10;4.43;;;;;;;30.24;63.98;96437.88;5009258;28;101913;-61
2023/06/21 10:09:17;;;;;;;11.55;4.55;;;;;;;30.37;68.67;96434.50;4991503;28;105090;-60
2023/06/21 10:11:44;;;;;;;7.97;4.43;;;;;;;31.24;69.27;96445.56;5008788;28;102493;-60
2023/06/21 10:14:25;;;;;;;6.43;4.47;;;;;;;31.94;61.95;96439.72;5012744;28;101819;-60
2023/06/21 10:16:54;;;;;;;10.18;5.30;;;;;;;32.25;61.80;96445.38;4990759;28;105048;-60
2023/06/21 10:19:24;;;;;;;10.90;5.18;;;;;;;31.27;65.64;96436.53;4991215;28;101969;-60
2023/06/21 10:22:01;;;;;;;8.38;5.05;;;;;;;31.62;63.28;96439.53;5009556;28;102674;-60
2023/06/21 10:24:34;;;;;;;7.18;4.93;;;;;;;32.02;62.78;96438.56;4990639;28;105630;-60
2023/06/21 10:27:02;;;;;;;7.18;5.18;;;;;;;31.21;61.92;96432.56;4990544;28;101835;-60
2023/06/21 10:29:32;;;;;;;7.00;4.70;;;;;;;31.34;70.94;96441.31;4990830;28;105299;-60
2023/06/21 10:32:01;;;;;;;8.52;5.25;;;;;;;31.34;60.96;96436.59;5011877;28;102576;-60
2023/06/21 10:34:37;;;;;;;9.05;5.32;;;;;;;31.16;60.73;96437.63;5012817;28;102034;-60
2023/06/21 10:37:22;;;;;;;8.90;5.25;;;;;;;30.54;71.60;96444.88;4997248;28;105551;-61
2023/06/21 10:39:53;;;;;;;10.68;5.35;;;;;;;30.74;69.09;96450.97;4994591;28;101861;-60
2023/06/21 10:42:22;;;;;;;7.68;5.28;;;;;;;30.73;65.64;96460.38;4993930;28;105193;-59
2023/06/21 10:44:50;;;;;;;7.97;5.22;;;;;;;30.15;61.98;96465.59;4993547;28;105175;-60
2023/06/21 10:47:21;;;;;;;8.68;4.63;;;;;;;31.54;70.50;96470.13;4994072;28;102124;-60
2023/06/21 10:49:49;;;;;;;8.13;4.95;;;;;;;32.08;58.30;96476.34;4994181;28;105327;-60
2023/06/21 10:52:18;;;;;;;8.77;4.90;;;;;;;32.57;56.71;96481.25;4993574;28;105066;-60
2023/06/21 10:54:46;;;;;;;8.65;4.78;;;;;;;32.44;53.12;96486.38;4993960;28;102001;-60
2023/06/21 10:57:15;;;;;;;6.25;4.95;;;;;;;32.15;52.77;96486.59;5012115;28;102383;-60
2023/06/21 10:59:43;;;;;;;8.38;5.60;;;;;;;30.92;64.71;96493.13;4997106;28;105681;-60
2023/06/21 11:02:10;;;;;;;8.38;5.32;;;;;;;30.70;66.48;96499.56;5012240;28;102405;-60
2023/06/21 11:05:11;;;;;;;9.05;5.10;;;;;;;30.79;71.83;96508.31;4993554;28;105498;-60
2023/06/21 11:07:45;;;;;;;8.32;5.00;;;;;;;31.30;67.72;96511.94;5012057;28;102385;-60
2023/06/21 11:10:12;;;;;;;7.25;5.03;;;;;;;32.00;62.22;96512.47;4993993;28;105402;-60
2023/06/21 11:12:39;;;;;;;8.18;5.15;;;;;;;30.89;65.09;96515.88;4993446;28;105398;-61
2023/06/21 11:15:07;;;;;;;11.48;5.30;;;;;;;31.87;66.49;96511.22;4993712;28;101832;-61
2023/06/21 11:17:35;;;;;;;7.82;5.05;;;;;;;32.43;69.20;96508.78;5012059;28;102365;-60
2023/06/21 11:20:19;;;;;;;5.88;5.03;;;;;;;32.85;58.57;96514.44;5011362;28;102985;-60